createdAt,value
2017-10-07T00:02:09.559Z,79.49
2017-10-07T00:04:37.183Z,79.16
2017-10-07T00:07:04.838Z,79.67
2017-10-07T00:09:32.504Z,79.28
2017-10-07T00:12:00.123Z,78.78
2017-10-07T00:14:27.852Z,78.57
2017-10-07T00:16:55.481Z,78.62
2017-10-07T00:19:23.099Z,78.73
2017-10-07T00:21:50.823Z,78.32
2017-10-07T00:24:18.491Z,77.97
2017-10-07T00:26:46.108Z,77.99
2017-10-07T00:29:13.825Z,78.25
2017-10-07T00:31:41.499Z,78.14
2017-10-07T00:34:09.200Z,77.66
2017-10-07T00:36:36.942Z,77.47
2017-10-07T00:39:04.647Z,77.67
2017-10-07T00:41:32.314Z,77.81
2017-10-07T00:43:59.966Z,77.27
2017-10-07T00:46:27.587Z,77.22
2017-10-07T00:48:55.197Z,77.18
2017-10-07T00:51:22.859Z,76.88
2017-10-07T00:53:50.466Z,76.22
2017-10-07T00:56:18.086Z,76.50
2017-10-07T00:58:45.820Z,76.46
2017-10-07T01:01:13.447Z,76.34
2017-10-07T01:03:41.114Z,76.05
2017-10-07T01:06:08.836Z,76.28
2017-10-07T01:08:36.503Z,76.43
2017-10-07T01:11:04.103Z,76.25
2017-10-07T01:13:31.787Z,76.29
2017-10-07T01:15:59.439Z,76.34
2017-10-07T01:18:27.045Z,76.13
2017-10-07T01:20:54.783Z,75.93
2017-10-07T01:23:22.447Z,76.32
2017-10-07T01:25:50.067Z,76.67
2017-10-07T01:28:17.967Z,76.36
2017-10-07T01:30:45.571Z,76.44
2017-10-07T01:33:13.247Z,76.25
2017-10-07T01:35:40.919Z,75.86
2017-10-07T01:38:08.595Z,76.40
2017-10-07T01:40:36.211Z,76.38
2017-10-07T01:43:03.878Z,76.73
2017-10-07T01:45:31.559Z,77.80
2017-10-07T01:47:59.154Z,78.94
2017-10-07T01:50:26.859Z,79.00
2017-10-07T01:52:54.470Z,79.55
2017-10-07T01:55:22.092Z,79.81
2017-10-07T01:57:49.751Z,80.09
2017-10-07T02:00:17.425Z,80.62
2017-10-07T02:02:45.035Z,80.50
2017-10-07T02:05:12.748Z,80.97
2017-10-07T02:07:40.359Z,79.59
2017-10-07T02:10:07.985Z,80.19
2017-10-07T02:12:35.684Z,80.82
2017-10-07T02:15:03.343Z,80.77
2017-10-07T02:17:31.012Z,80.97
2017-10-07T02:19:58.679Z,82.64
2017-10-07T02:22:26.285Z,82.30
2017-10-07T02:24:53.947Z,82.49
2017-10-07T02:27:21.599Z,83.47
2017-10-07T02:29:49.207Z,82.61
2017-10-07T02:32:16.811Z,81.58
2017-10-07T02:34:44.455Z,81.83
2017-10-07T02:37:12.120Z,83.35
2017-10-07T02:39:39.792Z,83.37
2017-10-07T02:42:07.492Z,82.89
2017-10-07T02:44:35.104Z,82.19
2017-10-07T02:47:02.714Z,81.83
2017-10-07T02:49:30.372Z,82.44
2017-10-07T02:51:58.050Z,83.39
2017-10-07T02:54:25.735Z,84.15
2017-10-07T02:56:53.422Z,84.15
2017-10-07T02:59:21.028Z,84.22
2017-10-07T03:01:48.632Z,84.19
2017-10-07T03:04:16.299Z,84.44
2017-10-07T03:06:43.914Z,84.03
2017-10-07T03:09:11.528Z,84.22
2017-10-07T03:11:39.176Z,84.07
2017-10-07T03:14:06.847Z,83.87
2017-10-07T03:16:34.516Z,84.50
2017-10-07T03:19:02.263Z,84.22
2017-10-07T03:21:29.863Z,84.59
2017-10-07T03:23:57.483Z,84.71
2017-10-07T03:26:25.182Z,84.77
2017-10-07T03:28:52.792Z,85.13
2017-10-07T03:31:20.390Z,85.08
2017-10-07T03:33:48.137Z,85.15
2017-10-07T03:36:15.742Z,85.32
2017-10-07T03:38:43.423Z,85.41
2017-10-07T03:41:11.127Z,85.65
2017-10-07T03:43:38.795Z,85.74
2017-10-07T03:46:06.459Z,85.37
2017-10-07T03:48:34.135Z,85.66
2017-10-07T03:51:01.747Z,85.56
2017-10-07T03:53:29.404Z,85.28
2017-10-07T03:55:57.107Z,85.31
2017-10-07T03:58:24.715Z,85.49
2017-10-07T04:00:52.319Z,84.59
2017-10-07T04:03:20.057Z,85.15
2017-10-07T04:05:47.668Z,85.59
2017-10-07T04:08:15.335Z,85.83
2017-10-07T04:10:43.050Z,85.47
2017-10-07T04:13:10.652Z,85.29
2017-10-07T04:15:38.255Z,85.23
2017-10-07T04:18:05.967Z,85.44
2017-10-07T04:20:33.634Z,85.60
2017-10-07T04:23:01.247Z,85.61
2017-10-07T04:25:28.959Z,85.15
2017-10-07T04:27:56.570Z,85.54
2017-10-07T04:30:24.179Z,85.77
2017-10-07T04:32:51.896Z,86.00
2017-10-07T04:35:19.580Z,84.88
2017-10-07T04:37:47.251Z,84.83
2017-10-07T04:40:14.907Z,84.07
2017-10-07T04:42:42.517Z,83.53
2017-10-07T04:45:10.127Z,83.53
2017-10-07T04:47:37.847Z,83.14
2017-10-07T04:50:05.459Z,84.03
2017-10-07T04:52:33.062Z,83.58
2017-10-07T04:55:00.714Z,83.24
2017-10-07T04:57:28.332Z,83.28
2017-10-07T04:59:55.999Z,83.65
2017-10-07T05:02:23.713Z,82.54
2017-10-07T05:04:51.323Z,82.88
2017-10-07T05:07:19.048Z,81.42
2017-10-07T05:09:46.791Z,81.83
2017-10-07T05:12:14.403Z,82.33
2017-10-07T05:14:42.073Z,81.77
2017-10-07T05:17:09.796Z,82.27
2017-10-07T05:19:37.409Z,82.22
2017-10-07T05:22:05.083Z,81.95
2017-10-07T05:24:32.745Z,81.28
2017-10-07T05:27:00.464Z,80.40
2017-10-07T05:29:28.062Z,81.17
2017-10-07T05:31:55.712Z,80.97
2017-10-07T05:34:23.307Z,80.73
2017-10-07T05:36:50.913Z,80.89
2017-10-07T05:39:18.636Z,80.21
2017-10-07T05:41:46.244Z,81.00
2017-10-07T05:44:13.843Z,81.06
2017-10-07T05:46:41.499Z,80.99
2017-10-07T05:49:09.112Z,81.25
2017-10-07T05:51:36.775Z,82.05
2017-10-07T05:54:04.426Z,81.90
2017-10-07T05:56:32.029Z,81.67
2017-10-07T05:58:59.687Z,81.70
2017-10-07T06:01:27.496Z,82.01
2017-10-07T06:03:55.232Z,81.76
2017-10-07T06:06:22.869Z,82.57
2017-10-07T06:08:50.634Z,82.28
2017-10-07T06:11:19.198Z,83.60
2017-10-07T06:13:46.947Z,84.00
2017-10-07T06:16:14.692Z,82.95
2017-10-07T06:18:42.391Z,83.00
2017-10-07T06:21:10.047Z,82.49
2017-10-07T06:23:37.832Z,82.63
2017-10-07T06:26:05.516Z,83.27
2017-10-07T06:28:33.156Z,82.79
2017-10-07T06:31:00.876Z,83.38
2017-10-07T06:33:28.588Z,82.26
2017-10-07T06:35:56.187Z,82.26
2017-10-07T06:38:23.924Z,82.12
2017-10-07T06:40:51.546Z,82.33
2017-10-07T06:43:19.259Z,82.40
2017-10-07T06:45:46.999Z,83.34
2017-10-07T06:48:14.613Z,83.09
2017-10-07T06:50:42.300Z,83.23
2017-10-07T06:53:09.954Z,83.06
2017-10-07T06:55:37.639Z,82.87
2017-10-07T06:58:05.314Z,82.27
2017-10-07T07:00:33.023Z,82.49
2017-10-07T07:03:00.724Z,81.49
2017-10-07T07:05:28.368Z,81.08
2017-10-07T07:07:56.031Z,81.39
2017-10-07T07:10:23.657Z,81.74
2017-10-07T07:12:51.267Z,82.13
2017-10-07T07:15:19.012Z,81.55
2017-10-07T07:17:46.626Z,82.20
2017-10-07T07:20:14.259Z,81.65
2017-10-07T07:22:41.922Z,81.41
2017-10-07T07:25:09.530Z,81.07
2017-10-07T07:27:37.216Z,82.24
2017-10-07T07:30:04.975Z,81.77
2017-10-07T07:32:32.652Z,82.75
2017-10-07T07:35:00.286Z,83.93
2017-10-07T07:37:28.036Z,85.21
2017-10-07T07:39:55.647Z,85.02
2017-10-07T07:42:23.244Z,85.64
2017-10-07T07:44:50.912Z,86.10
2017-10-07T07:47:18.576Z,86.56
2017-10-07T07:49:46.204Z,86.18
2017-10-07T07:52:13.937Z,86.58
2017-10-07T07:54:41.583Z,87.21
2017-10-07T07:57:09.251Z,87.45
2017-10-07T07:59:36.920Z,87.75
2017-10-07T08:02:04.530Z,87.79
2017-10-07T08:04:32.136Z,87.70
2017-10-07T08:06:59.853Z,88.00
2017-10-07T08:09:27.479Z,88.09
2017-10-07T08:11:55.104Z,87.65
2017-10-07T08:14:22.750Z,88.24
2017-10-07T08:16:50.420Z,88.58
2017-10-07T08:19:18.036Z,88.68
2017-10-07T08:21:45.691Z,88.65
2017-10-07T08:24:13.358Z,88.29
2017-10-07T08:26:40.978Z,88.09
2017-10-07T08:29:08.699Z,87.63
2017-10-07T08:31:36.363Z,88.04
2017-10-07T08:34:04.024Z,87.96
2017-10-07T08:36:31.784Z,87.34
2017-10-07T08:38:59.447Z,87.54
2017-10-07T08:41:27.064Z,87.79
2017-10-07T08:43:54.787Z,86.77
2017-10-07T08:46:22.387Z,87.51
2017-10-07T08:48:50.067Z,87.20
2017-10-07T08:51:17.710Z,87.54
2017-10-07T08:53:45.390Z,87.31
2017-10-07T08:56:13.051Z,87.29
2017-10-07T08:58:40.776Z,87.35
2017-10-07T09:01:08.452Z,87.43
2017-10-07T09:03:36.124Z,87.78
2017-10-07T09:06:03.853Z,87.76
2017-10-07T09:08:31.576Z,87.89
2017-10-07T09:10:59.187Z,87.91
2017-10-07T09:13:26.836Z,88.06
2017-10-07T09:15:54.450Z,88.22
2017-10-07T09:18:22.066Z,87.98
2017-10-07T09:20:49.722Z,87.71
2017-10-07T09:23:17.334Z,87.68
2017-10-07T09:25:44.944Z,87.79
2017-10-07T09:28:12.622Z,87.81
2017-10-07T09:30:40.241Z,88.02
2017-10-07T09:33:07.905Z,88.29
2017-10-07T09:35:35.625Z,88.34
2017-10-07T09:38:03.349Z,88.50
2017-10-07T09:40:30.959Z,88.57
2017-10-07T09:42:58.619Z,88.15
2017-10-07T09:45:26.288Z,87.91
2017-10-07T09:47:53.894Z,87.98
2017-10-07T09:50:21.540Z,87.62
2017-10-07T09:52:49.141Z,88.17
2017-10-07T09:55:16.739Z,87.59
2017-10-07T09:57:44.454Z,87.52
2017-10-07T10:00:12.062Z,87.29
2017-10-07T10:02:39.720Z,87.11
2017-10-07T10:05:07.432Z,87.25
2017-10-07T10:07:35.055Z,87.31
2017-10-07T10:10:02.723Z,87.21
2017-10-07T10:12:30.441Z,87.51
2017-10-07T10:14:58.048Z,87.72
2017-10-07T10:17:25.714Z,87.56
2017-10-07T10:19:53.448Z,87.49
2017-10-07T10:22:21.055Z,88.08
2017-10-07T10:24:48.727Z,87.95
2017-10-07T10:27:16.427Z,87.65
2017-10-07T10:29:44.025Z,87.88
2017-10-07T10:32:11.632Z,88.32
2017-10-07T10:34:39.344Z,87.66
2017-10-07T10:37:06.955Z,88.03
2017-10-07T10:39:34.642Z,87.65
2017-10-07T10:42:02.308Z,87.52
2017-10-07T10:44:29.967Z,87.56
2017-10-07T10:46:57.628Z,87.62
2017-10-07T10:49:25.283Z,88.18
2017-10-07T10:51:52.947Z,88.52
2017-10-07T10:54:20.613Z,88.55
2017-10-07T10:56:48.295Z,88.45
2017-10-07T10:59:15.914Z,87.84
2017-10-07T11:01:43.579Z,87.98
2017-10-07T11:04:11.255Z,88.24
2017-10-07T11:06:38.920Z,87.82
2017-10-07T11:09:06.595Z,87.66
2017-10-07T11:11:34.307Z,87.53
2017-10-07T11:14:01.976Z,87.66
2017-10-07T11:16:29.585Z,87.76
2017-10-07T11:18:57.306Z,87.90
2017-10-07T11:21:24.915Z,87.39
2017-10-07T11:23:52.518Z,87.72
2017-10-07T11:26:20.162Z,87.29
2017-10-07T11:28:47.771Z,86.86
2017-10-07T11:31:15.375Z,87.45
2017-10-07T11:33:43.032Z,87.69
2017-10-07T11:36:10.639Z,88.07
2017-10-07T11:38:38.252Z,88.44
2017-10-07T11:41:05.930Z,88.67
2017-10-07T11:43:33.591Z,88.65
2017-10-07T11:46:01.193Z,88.79
2017-10-07T11:48:28.855Z,88.81
2017-10-07T11:50:56.472Z,88.64
2017-10-07T11:53:24.084Z,88.73
2017-10-07T11:55:51.747Z,88.86
2017-10-07T11:58:19.351Z,88.81
2017-10-07T12:00:46.958Z,88.74
2017-10-07T12:03:14.636Z,88.77
2017-10-07T12:05:42.341Z,89.00
2017-10-07T12:08:12.743Z,88.85
2017-10-07T12:10:37.712Z,88.90
2017-10-07T12:13:05.384Z,89.28
2017-10-07T12:15:33.003Z,89.53
2017-10-07T12:18:00.968Z,89.03
2017-10-07T12:20:28.571Z,89.04
2017-10-07T12:22:56.249Z,89.23
2017-10-07T12:25:23.907Z,89.03
2017-10-07T12:27:51.575Z,88.89
2017-10-07T12:30:19.186Z,88.12
2017-10-07T12:32:46.852Z,88.55
2017-10-07T12:35:14.463Z,88.71
2017-10-07T12:37:42.088Z,88.84
2017-10-07T12:40:09.796Z,88.49
2017-10-07T12:42:37.407Z,88.62
2017-10-07T12:45:05.077Z,88.89
2017-10-07T12:47:32.778Z,88.59
2017-10-07T12:50:00.459Z,88.32
2017-10-07T12:52:28.120Z,88.53
2017-10-07T12:54:55.831Z,88.82
2017-10-07T12:57:23.451Z,88.31
2017-10-07T12:59:51.055Z,88.17
2017-10-07T13:02:18.710Z,87.82
2017-10-07T13:04:46.376Z,88.32
2017-10-07T13:07:13.987Z,88.36
2017-10-07T13:09:41.643Z,88.55
2017-10-07T13:12:09.304Z,88.67
2017-10-07T13:14:37.019Z,88.79
2017-10-07T13:17:04.723Z,88.39
2017-10-07T13:19:32.330Z,88.31
2017-10-07T13:21:59.954Z,88.81
2017-10-07T13:24:27.683Z,88.85
2017-10-07T13:26:55.295Z,89.01
2017-10-07T13:29:22.916Z,89.17
2017-10-07T13:31:50.595Z,89.08
2017-10-07T13:34:18.275Z,89.31
2017-10-07T13:36:45.965Z,89.33
2017-10-07T13:39:13.631Z,89.01
2017-10-07T13:41:41.266Z,88.92
2017-10-07T13:44:08.939Z,89.08
2017-10-07T13:46:36.660Z,89.02
2017-10-07T13:49:04.283Z,89.10
2017-10-07T13:51:31.899Z,89.06
2017-10-07T13:53:59.563Z,88.45
2017-10-07T13:56:27.184Z,88.87
2017-10-07T13:58:54.872Z,89.03
2017-10-07T14:01:22.559Z,89.13
2017-10-07T14:03:50.187Z,88.81
2017-10-07T14:06:17.795Z,89.02
2017-10-07T14:08:45.476Z,88.90
2017-10-07T14:11:13.148Z,88.95
2017-10-07T14:13:40.788Z,88.87
2017-10-07T14:16:08.459Z,89.15
2017-10-07T14:18:36.073Z,89.27
2017-10-07T14:21:03.686Z,89.17
2017-10-07T14:23:31.396Z,89.39
2017-10-07T14:25:59.012Z,89.90
2017-10-07T14:28:26.636Z,89.85
2017-10-07T14:30:54.375Z,89.25
2017-10-07T14:33:21.999Z,89.21
2017-10-07T14:35:49.615Z,89.27
2017-10-07T14:38:17.329Z,89.15
2017-10-07T14:40:44.938Z,88.56
2017-10-07T14:43:12.547Z,88.76
2017-10-07T14:45:40.200Z,88.94
2017-10-07T14:48:07.806Z,89.18
2017-10-07T14:50:35.431Z,89.21
2017-10-07T14:53:03.177Z,89.44
2017-10-07T14:55:30.847Z,89.54
2017-10-07T14:57:58.463Z,89.58
2017-10-07T15:00:26.132Z,89.45
2017-10-07T15:02:53.807Z,89.34
2017-10-07T15:05:21.426Z,89.26
2017-10-07T15:07:49.152Z,89.86
2017-10-07T15:10:16.879Z,89.40
2017-10-07T15:12:44.610Z,89.38
2017-10-07T15:15:12.335Z,89.09
2017-10-07T15:17:40.020Z,89.33
2017-10-07T15:20:07.642Z,89.50
2017-10-07T15:22:35.319Z,89.02
2017-10-07T15:25:02.991Z,89.53
2017-10-07T15:27:30.621Z,89.73
2017-10-07T15:29:58.352Z,89.71
2017-10-07T15:32:25.965Z,90.12
2017-10-07T15:34:53.574Z,90.00
2017-10-07T15:37:21.292Z,89.72
2017-10-07T15:39:48.955Z,89.73
2017-10-07T15:42:16.631Z,89.79
2017-10-07T15:44:44.283Z,89.98
2017-10-07T15:47:11.896Z,89.60
2017-10-07T15:49:39.507Z,89.64
2017-10-07T15:52:07.172Z,89.44
2017-10-07T15:54:34.793Z,89.42
2017-10-07T15:57:02.406Z,89.15
2017-10-07T15:59:30.075Z,89.04
2017-10-07T16:01:57.695Z,89.24
2017-10-07T16:04:25.299Z,89.75
2017-10-07T16:06:52.956Z,90.27
2017-10-07T16:09:20.567Z,90.05
2017-10-07T16:11:48.179Z,89.58
2017-10-07T16:14:15.885Z,89.66
2017-10-07T16:16:43.556Z,89.71
2017-10-07T16:19:11.168Z,89.77
2017-10-07T16:21:38.887Z,89.79
2017-10-07T16:24:06.565Z,89.65
2017-10-07T16:26:34.188Z,89.78
2017-10-07T16:29:01.897Z,89.82
2017-10-07T16:31:29.584Z,89.67
2017-10-07T16:33:57.208Z,89.88
2017-10-07T16:36:24.869Z,89.83
2017-10-07T16:38:52.501Z,90.02
2017-10-07T16:41:20.116Z,90.04
2017-10-07T16:43:47.855Z,90.09
2017-10-07T16:46:15.581Z,90.18
2017-10-07T16:48:43.307Z,89.93
2017-10-07T16:51:11.007Z,89.89
2017-10-07T16:53:38.626Z,90.03
2017-10-07T16:56:06.238Z,90.25
2017-10-07T16:58:33.912Z,89.89
2017-10-07T17:01:01.645Z,90.03
2017-10-07T17:03:29.250Z,89.63
2017-10-07T17:05:56.904Z,89.62
2017-10-07T17:08:24.507Z,89.55
2017-10-07T17:10:52.126Z,89.62
2017-10-07T17:13:19.787Z,89.45
2017-10-07T17:15:47.522Z,90.06
2017-10-07T17:18:15.130Z,90.21
2017-10-07T17:20:42.799Z,90.22
2017-10-07T17:23:10.417Z,90.29
2017-10-07T17:25:38.043Z,90.64
2017-10-07T17:28:05.698Z,90.34
2017-10-07T17:30:33.379Z,90.52
2017-10-07T17:33:01.053Z,90.22
2017-10-07T17:35:28.797Z,90.46
2017-10-07T17:37:56.412Z,90.82
2017-10-07T17:40:24.015Z,90.43
2017-10-07T17:42:51.775Z,90.67
2017-10-07T17:45:19.447Z,90.67
2017-10-07T17:47:47.115Z,90.34
2017-10-07T17:50:14.844Z,90.46
2017-10-07T17:52:42.499Z,90.10
2017-10-07T17:55:10.102Z,89.99
2017-10-07T17:57:37.808Z,89.56
2017-10-07T18:00:05.483Z,89.83
2017-10-07T18:02:33.292Z,89.97
2017-10-07T18:05:00.964Z,89.99
2017-10-07T18:07:28.636Z,90.00
2017-10-07T18:09:56.316Z,90.19
2017-10-07T18:12:25.161Z,90.30
2017-10-07T18:14:52.834Z,90.59
2017-10-07T18:17:20.508Z,90.69
2017-10-07T18:19:48.188Z,90.73
2017-10-07T18:22:15.875Z,90.43
2017-10-07T18:24:43.490Z,90.25
2017-10-07T18:27:11.272Z,90.26
2017-10-07T18:29:38.932Z,90.37
2017-10-07T18:32:06.594Z,90.35
2017-10-07T18:34:34.263Z,90.04
2017-10-07T18:37:01.876Z,90.03
2017-10-07T18:39:29.535Z,89.98
2017-10-07T18:41:57.179Z,89.33
2017-10-07T18:44:24.787Z,88.97
2017-10-07T18:46:52.395Z,89.59
2017-10-07T18:49:20.113Z,89.65
2017-10-07T18:51:47.752Z,89.72
2017-10-07T18:54:15.343Z,89.29
2017-10-07T18:56:43.056Z,89.65
2017-10-07T18:59:10.756Z,89.91
2017-10-07T19:01:38.380Z,89.88
2017-10-07T19:04:06.174Z,89.86
2017-10-07T19:06:33.884Z,89.66
2017-10-07T19:09:01.499Z,89.75
2017-10-07T19:11:29.204Z,90.09
2017-10-07T19:13:56.802Z,90.32
2017-10-07T19:16:24.479Z,90.17
2017-10-07T19:18:52.144Z,89.97
2017-10-07T19:21:19.819Z,90.02
2017-10-07T19:23:47.476Z,90.14
2017-10-07T19:26:15.120Z,89.96
2017-10-07T19:28:42.784Z,89.77
2017-10-07T19:31:10.451Z,89.85
2017-10-07T19:33:38.162Z,89.84
2017-10-07T19:36:05.818Z,90.02
2017-10-07T19:38:33.472Z,90.10
2017-10-07T19:41:01.244Z,89.70
2017-10-07T19:43:28.847Z,89.41
2017-10-07T19:45:56.514Z,89.21
2017-10-07T19:48:24.199Z,89.64
2017-10-07T19:50:51.806Z,90.20
2017-10-07T19:53:19.403Z,90.05
2017-10-07T19:55:47.056Z,90.07
2017-10-07T19:58:14.659Z,90.39
2017-10-07T20:00:42.272Z,90.54
2017-10-07T20:03:09.931Z,90.64
2017-10-07T20:05:37.530Z,90.34
2017-10-07T20:08:05.123Z,90.51
2017-10-07T20:10:32.833Z,90.60
2017-10-07T20:13:00.548Z,90.45
2017-10-07T20:15:28.159Z,90.47
2017-10-07T20:17:55.900Z,90.91
2017-10-07T20:20:24.435Z,90.79
2017-10-07T20:22:52.087Z,90.37
2017-10-07T20:25:19.728Z,90.29
2017-10-07T20:27:47.328Z,90.51
2017-10-07T20:30:14.923Z,90.18
2017-10-07T20:32:42.576Z,90.20
2017-10-07T20:35:10.184Z,90.51
2017-10-07T20:37:37.856Z,90.80
2017-10-07T20:40:05.572Z,90.34
2017-10-07T20:42:33.228Z,90.43
2017-10-07T20:45:00.839Z,89.98
2017-10-07T20:47:28.490Z,90.25
2017-10-07T20:49:56.084Z,90.58
2017-10-07T20:52:23.688Z,90.51
2017-10-07T20:54:51.335Z,90.72
2017-10-07T20:57:18.934Z,90.79
2017-10-07T20:59:46.596Z,90.99
2017-10-07T21:02:14.321Z,91.23
2017-10-07T21:04:41.941Z,91.08
2017-10-07T21:07:09.548Z,90.93
2017-10-07T21:09:37.200Z,90.81
2017-10-07T21:12:04.863Z,90.92
2017-10-07T21:14:32.478Z,90.88
2017-10-07T21:17:00.184Z,90.48
2017-10-07T21:19:27.903Z,90.67
2017-10-07T21:21:55.510Z,90.64
2017-10-07T21:24:23.266Z,90.85
2017-10-07T21:26:50.915Z,90.91
2017-10-07T21:29:18.588Z,91.16
2017-10-07T21:31:46.284Z,90.83
2017-10-07T21:34:13.951Z,90.94
2017-10-07T21:36:41.664Z,90.87
2017-10-07T21:39:09.388Z,90.53
2017-10-07T21:41:37.043Z,90.78
2017-10-07T21:44:04.747Z,90.61
2017-10-07T21:46:32.440Z,90.42
2017-10-07T21:49:00.047Z,90.51
2017-10-07T21:51:27.651Z,90.87
2017-10-07T21:53:55.287Z,90.89
2017-10-07T21:56:22.886Z,91.02
2017-10-07T21:58:50.479Z,91.02
2017-10-07T22:01:18.128Z,91.11
2017-10-07T22:03:45.734Z,90.86
2017-10-07T22:06:13.339Z,91.07
2017-10-07T22:08:40.983Z,91.36
2017-10-07T22:11:08.571Z,91.45
2017-10-07T22:13:36.223Z,91.32
2017-10-07T22:16:03.924Z,91.52
2017-10-07T22:18:31.592Z,91.45
2017-10-07T22:20:59.239Z,91.25
2017-10-07T22:23:26.899Z,91.10
2017-10-07T22:25:54.490Z,91.47
2017-10-07T22:28:22.149Z,91.04
2017-10-07T22:30:49.844Z,91.13
2017-10-07T22:33:17.445Z,91.04
2017-10-07T22:35:45.040Z,91.16
2017-10-07T22:38:12.692Z,91.12
2017-10-07T22:40:40.295Z,91.08
2017-10-07T22:43:07.903Z,91.26
2017-10-07T22:45:35.547Z,91.28
2017-10-07T22:48:03.142Z,91.20
2017-10-07T22:50:30.741Z,91.24
2017-10-07T22:52:58.399Z,91.57
2017-10-07T22:55:26.012Z,91.33
2017-10-07T22:57:53.627Z,91.80
2017-10-07T23:00:21.268Z,91.63
2017-10-07T23:02:48.862Z,91.53
2017-10-07T23:05:16.515Z,91.35
2017-10-07T23:07:44.169Z,91.46
2017-10-07T23:10:11.762Z,91.48
2017-10-07T23:12:39.356Z,91.43
2017-10-07T23:15:07.024Z,91.57
2017-10-07T23:17:34.678Z,91.66
2017-10-07T23:20:02.295Z,91.34
2017-10-07T23:22:33.880Z,91.04
2017-10-07T23:25:01.486Z,90.52
2017-10-07T23:27:29.081Z,90.55
2017-10-07T23:29:56.743Z,90.58
2017-10-07T23:32:24.343Z,90.86
2017-10-07T23:34:52.009Z,90.79
2017-10-07T23:37:19.726Z,90.34
2017-10-07T23:39:47.329Z,90.73
2017-10-07T23:42:14.995Z,90.47
2017-10-07T23:44:42.694Z,90.57
2017-10-07T23:47:10.299Z,90.92
2017-10-07T23:49:37.906Z,90.83
2017-10-07T23:52:05.563Z,90.57
2017-10-07T23:54:33.219Z,91.13
2017-10-07T23:57:00.815Z,90.43
2017-10-07T23:59:28.454Z,90.36
